Time;durP1;ratioP1;P1;durP2;ratioP2;P2;SDS_P1;SDS_P2;PMS_P1;PMS_P2;Temp;Humidity;BMP_temperature;BMP_pressure;BME280_temperature;BME280_humidity;BME280_pressure;Samples;Min_cycle;Max_cycle;Signal;HPM_P1;HPM_P2
2024/03/17 00:01:13;;;;;;;2.10;1.33;;;11.90;99.90;;;;;;4982473;28;20907;-47
2024/03/17 00:03:40;;;;;;;3.43;1.77;;;11.90;99.90;;;;;;4974469;28;20461;-48
2024/03/17 00:06:09;;;;;;;2.87;2.23;;;11.90;99.90;;;;;;4971448;28;20486;-48
2024/03/17 00:08:36;;;;;;;2.07;1.40;;;11.90;99.90;;;;;;4974125;28;20454;-46
2024/03/17 00:11:02;;;;;;;2.40;2.00;;;11.90;99.90;;;;;;4971029;28;20443;-48
2024/03/17 00:13:29;;;;;;;2.40;1.83;;;11.90;99.90;;;;;;4977299;28;20526;-48
2024/03/17 00:15:55;;;;;;;1.90;1.50;;;11.90;99.90;;;;;;4973872;28;20739;-48
2024/03/17 00:18:22;;;;;;;2.40;1.33;;;11.90;99.90;;;;;;4970000;28;20454;-47
2024/03/17 00:20:48;;;;;;;2.20;1.60;;;11.90;99.90;;;;;;4969610;28;20475;-47
2024/03/17 00:23:17;;;;;;;2.30;1.43;;;11.90;99.90;;;;;;4978194;28;20589;-47
2024/03/17 00:25:43;;;;;;;2.63;1.93;;;11.90;99.90;;;;;;4978408;28;20441;-47
2024/03/17 00:28:11;;;;;;;2.20;1.70;;;11.80;99.90;;;;;;4969941;28;20941;-47
2024/03/17 00:30:38;;;;;;;2.20;1.60;;;11.80;99.90;;;;;;4970181;28;20422;-47
2024/03/17 00:33:05;;;;;;;3.03;1.87;;;11.80;99.90;;;;;;4971899;28;20509;-47
2024/03/17 00:35:31;;;;;;;2.17;1.70;;;11.80;99.90;;;;;;4976514;28;20498;-47
2024/03/17 00:37:58;;;;;;;2.20;1.63;;;11.80;99.90;;;;;;4970997;28;20830;-47
2024/03/17 00:40:26;;;;;;;2.03;1.70;;;11.80;99.90;;;;;;4977419;28;20439;-47
2024/03/17 00:42:54;;;;;;;2.33;1.97;;;11.80;99.90;;;;;;4971822;28;20518;-47
2024/03/17 00:45:20;;;;;;;2.30;1.60;;;11.80;99.90;;;;;;4970377;28;20529;-47
2024/03/17 00:47:47;;;;;;;2.23;1.73;;;11.80;99.90;;;;;;4970173;28;20462;-47
2024/03/17 00:50:13;;;;;;;1.97;1.40;;;11.80;99.90;;;;;;4977821;28;20435;-47
2024/03/17 00:52:40;;;;;;;3.03;1.90;;;11.80;99.90;;;;;;4954691;28;20538;-47
2024/03/17 00:55:09;;;;;;;1.93;1.40;;;11.80;99.90;;;;;;4970503;28;20470;-47
2024/03/17 00:57:38;;;;;;;2.63;2.07;;;11.80;99.90;;;;;;4977914;28;20975;-48
2024/03/17 01:00:06;;;;;;;2.23;1.70;;;11.80;99.90;;;;;;4969899;28;20533;-47
2024/03/17 01:02:33;;;;;;;3.50;2.00;;;11.80;99.90;;;;;;4976294;28;20465;-46
2024/03/17 01:04:59;;;;;;;2.30;1.97;;;11.80;99.90;;;;;;4976361;28;20436;-47
2024/03/17 01:07:26;;;;;;;3.00;2.00;;;11.80;99.90;;;;;;4970405;28;20468;-46
2024/03/17 01:09:54;;;;;;;2.53;1.90;;;11.80;99.90;;;;;;4981127;28;21025;-47
2024/03/17 01:12:21;;;;;;;2.10;1.60;;;11.80;99.90;;;;;;4980043;28;20451;-47
2024/03/17 01:14:48;;;;;;;2.23;1.80;;;11.80;99.90;;;;;;4983722;28;20808;-46
2024/03/17 01:17:15;;;;;;;2.53;1.90;;;11.80;99.90;;;;;;4973837;28;20431;-48
2024/03/17 01:19:42;;;;;;;2.57;1.90;;;11.80;99.90;;;;;;4983419;28;20464;-47
2024/03/17 01:22:09;;;;;;;3.07;1.67;;;11.80;99.90;;;;;;4981694;28;20529;-47
2024/03/17 01:24:35;;;;;;;3.80;1.97;;;11.80;99.90;;;;;;4976205;28;20443;-47
2024/03/17 01:27:02;;;;;;;1.70;1.43;;;11.80;99.90;;;;;;4979581;28;20538;-47
2024/03/17 01:29:28;;;;;;;2.57;1.83;;;11.70;99.90;;;;;;4981646;28;20553;-46
2024/03/17 01:31:57;;;;;;;3.00;2.07;;;11.70;99.90;;;;;;4976360;28;20537;-47
2024/03/17 01:34:23;;;;;;;2.80;1.90;;;11.70;99.90;;;;;;4980777;28;20514;-47
2024/03/17 01:36:50;;;;;;;2.00;1.57;;;11.70;99.90;;;;;;4981463;28;20472;-46
2024/03/17 01:39:18;;;;;;;2.80;1.80;;;11.70;99.90;;;;;;4981078;28;20548;-46
2024/03/17 01:41:45;;;;;;;2.27;1.70;;;11.70;99.90;;;;;;4980676;28;20442;-47
2024/03/17 01:44:22;;;;;;;2.50;1.50;;;11.70;99.90;;;;;;4992822;28;20462;-46
2024/03/17 01:46:50;;;;;;;2.93;1.67;;;11.70;99.90;;;;;;4985398;28;20429;-47
2024/03/17 01:49:19;;;;;;;2.53;1.73;;;11.70;99.90;;;;;;4980564;28;20968;-46
2024/03/17 01:51:47;;;;;;;2.10;1.40;;;11.70;99.90;;;;;;4975008;28;20463;-47
2024/03/17 01:54:15;;;;;;;2.27;1.70;;;11.70;99.90;;;;;;4987312;28;20435;-46
2024/03/17 01:56:43;;;;;;;1.60;1.30;;;11.70;99.90;;;;;;4956740;28;20466;-47
2024/03/17 01:59:10;;;;;;;2.60;1.90;;;11.70;99.90;;;;;;4961639;28;20561;-47
2024/03/17 02:01:37;;;;;;;4.07;1.90;;;11.70;99.90;;;;;;4964989;28;20821;-47
2024/03/17 02:04:04;;;;;;;2.47;2.00;;;11.70;99.90;;;;;;4984376;28;20524;-46
2024/03/17 02:06:33;;;;;;;2.33;1.97;;;11.70;99.90;;;;;;4963484;28;20437;-48
2024/03/17 02:08:59;;;;;;;2.10;1.90;;;11.70;99.90;;;;;;4980144;28;20552;-47
2024/03/17 02:11:28;;;;;;;2.97;2.00;;;11.70;99.90;;;;;;4979333;28;20473;-49
2024/03/17 02:13:55;;;;;;;2.13;1.17;;;11.70;99.90;;;;;;4975364;28;20434;-48
2024/03/17 02:16:23;;;;;;;2.10;1.37;;;11.70;99.90;;;;;;4972549;28;20601;-47
2024/03/17 02:18:49;;;;;;;2.20;1.70;;;11.70;99.90;;;;;;4981779;28;20711;-48
2024/03/17 02:21:17;;;;;;;2.53;1.70;;;11.70;99.90;;;;;;4986653;28;20533;-47
2024/03/17 02:23:44;;;;;;;2.07;1.30;;;11.70;99.90;;;;;;4982729;28;20553;-47
2024/03/17 02:26:11;;;;;;;2.03;1.70;;;11.70;99.90;;;;;;4971994;28;20528;-47
2024/03/17 02:28:42;;;;;;;2.40;1.83;;;11.70;99.90;;;;;;4979581;28;20513;-47
2024/03/17 02:31:12;;;;;;;2.17;1.50;;;11.70;99.90;;;;;;4971258;28;20542;-48
2024/03/17 02:33:38;;;;;;;1.70;1.50;;;11.70;99.90;;;;;;4979936;28;20446;-46
2024/03/17 02:36:07;;;;;;;2.73;1.50;;;11.70;99.90;;;;;;4976626;28;20788;-46
2024/03/17 02:41:21;;;;;;;1.97;1.67;;;11.60;99.90;;;;;;4985730;28;20944;-49
2024/03/17 02:43:48;;;;;;;4.13;1.40;;;11.70;99.90;;;;;;4979742;28;20957;-47
2024/03/17 02:46:18;;;;;;;2.40;1.80;;;11.60;99.90;;;;;;4980350;28;20949;-47
2024/03/17 02:48:47;;;;;;;2.20;1.50;;;11.60;99.90;;;;;;4981119;28;21019;-46
2024/03/17 02:51:15;;;;;;;2.47;1.70;;;11.60;99.90;;;;;;4981964;28;20447;-48
2024/03/17 02:53:42;;;;;;;1.70;1.30;;;11.60;99.90;;;;;;4983042;28;20947;-48
2024/03/17 02:56:09;;;;;;;2.17;1.87;;;11.60;99.90;;;;;;4975055;28;20493;-46
2024/03/17 02:58:41;;;;;;;1.83;1.30;;;11.60;99.90;;;;;;4983425;28;20453;-46
2024/03/17 03:01:09;;;;;;;2.23;1.57;;;11.60;99.90;;;;;;4980543;28;20446;-47
2024/03/17 03:03:36;;;;;;;2.17;1.20;;;11.60;99.90;;;;;;4979209;28;20529;-48
2024/03/17 03:06:08;;;;;;;1.90;1.70;;;11.60;99.90;;;;;;4981615;28;20800;-47
2024/03/17 03:08:36;;;;;;;3.00;1.60;;;11.60;99.90;;;;;;4985157;28;20478;-47
2024/03/17 03:11:05;;;;;;;3.23;1.60;;;11.60;99.90;;;;;;4975138;28;20450;-47
2024/03/17 03:13:33;;;;;;;2.23;1.53;;;11.60;99.90;;;;;;4983442;28;20954;-48
2024/03/17 03:16:01;;;;;;;3.53;1.60;;;11.60;99.90;;;;;;4974777;28;21018;-47
2024/03/17 03:18:28;;;;;;;2.17;1.57;;;11.60;99.90;;;;;;4979364;28;20480;-47
2024/03/17 03:20:55;;;;;;;2.63;1.70;;;11.60;99.90;;;;;;4977749;28;20442;-47
2024/03/17 03:23:23;;;;;;;2.93;2.50;;;11.60;99.90;;;;;;4982341;28;20480;-47
2024/03/17 03:25:56;;;;;;;1.63;1.30;;;11.60;99.90;;;;;;4975869;28;20477;-47
2024/03/17 03:28:23;;;;;;;2.30;1.57;;;11.50;99.90;;;;;;4975945;28;20482;-47
2024/03/17 03:30:51;;;;;;;1.60;1.50;;;11.60;99.90;;;;;;4980844;28;20518;-48
2024/03/17 03:33:19;;;;;;;1.97;1.67;;;11.50;99.90;;;;;;4988078;28;20517;-46
2024/03/17 03:35:47;;;;;;;1.90;1.40;;;11.50;99.90;;;;;;4972668;28;20922;-48
2024/03/17 03:38:14;;;;;;;2.40;1.80;;;11.50;99.90;;;;;;4987339;28;20444;-47
2024/03/17 03:40:41;;;;;;;2.20;1.60;;;11.50;99.90;;;;;;4971785;28;20546;-47
2024/03/17 03:43:09;;;;;;;2.30;1.63;;;11.50;99.90;;;;;;4990120;28;20519;-46
2024/03/17 03:45:36;;;;;;;2.80;1.83;;;11.50;99.90;;;;;;4977598;28;20883;-47
2024/03/17 03:48:04;;;;;;;2.13;1.57;;;11.50;99.90;;;;;;4979198;28;21060;-46
2024/03/17 03:50:33;;;;;;;1.80;1.50;;;11.50;99.90;;;;;;4971699;28;20504;-47
2024/03/17 03:53:00;;;;;;;2.90;1.87;;;11.50;99.90;;;;;;4985250;28;20528;-46
2024/03/17 03:55:29;;;;;;;2.10;1.60;;;11.50;99.90;;;;;;4971672;28;21025;-47
2024/03/17 03:57:56;;;;;;;2.30;1.77;;;11.50;99.90;;;;;;4983293;28;20557;-49
2024/03/17 04:00:23;;;;;;;1.77;1.50;;;11.50;99.90;;;;;;4982058;28;20518;-47
2024/03/17 04:02:52;;;;;;;2.80;1.63;;;11.50;99.90;;;;;;4984357;28;20535;-48
2024/03/17 04:05:20;;;;;;;2.40;1.47;;;11.50;99.90;;;;;;4978919;28;20526;-47
2024/03/17 04:07:49;;;;;;;1.90;1.23;;;11.50;99.90;;;;;;4979372;28;20550;-48
2024/03/17 04:10:18;;;;;;;2.33;1.90;;;11.50;99.90;;;;;;4971035;28;20652;-47
2024/03/17 04:12:46;;;;;;;3.57;1.20;;;11.50;99.90;;;;;;4978483;28;20437;-47
2024/03/17 04:15:13;;;;;;;2.20;1.53;;;11.50;99.90;;;;;;4972067;28;20880;-46
2024/03/17 04:17:42;;;;;;;2.43;1.83;;;11.50;99.90;;;;;;4972813;28;21025;-47
2024/03/17 04:20:13;;;;;;;1.60;1.30;;;11.50;99.90;;;;;;4977576;28;20533;-47
2024/03/17 04:22:40;;;;;;;2.43;1.73;;;11.50;99.90;;;;;;4958735;28;21008;-47
2024/03/17 04:25:09;;;;;;;2.70;2.03;;;11.50;99.90;;;;;;4971168;28;20493;-47
2024/03/17 04:27:38;;;;;;;1.90;1.30;;;11.50;99.90;;;;;;4976600;28;20901;-47
2024/03/17 04:30:07;;;;;;;1.67;1.40;;;11.40;99.90;;;;;;4972866;28;20450;-46
2024/03/17 04:32:34;;;;;;;2.57;1.80;;;11.40;99.90;;;;;;4983980;28;20521;-47
2024/03/17 04:35:02;;;;;;;1.30;1.17;;;11.40;99.90;;;;;;4979006;28;20477;-48
2024/03/17 04:37:29;;;;;;;1.93;1.40;;;11.40;99.90;;;;;;4983315;28;20652;-47
2024/03/17 04:39:57;;;;;;;2.43;1.90;;;11.40;99.90;;;;;;4979541;28;20517;-49
2024/03/17 04:42:25;;;;;;;2.43;2.10;;;11.40;99.90;;;;;;4986100;28;20525;-47
2024/03/17 04:44:53;;;;;;;2.17;1.63;;;11.40;99.90;;;;;;4982783;28;20537;-47
2024/03/17 04:47:20;;;;;;;1.53;1.27;;;11.40;99.90;;;;;;4970453;28;20479;-48
2024/03/17 04:49:48;;;;;;;1.93;1.40;;;11.40;99.90;;;;;;4976824;28;20511;-47
2024/03/17 04:52:16;;;;;;;1.90;1.37;;;11.40;99.90;;;;;;4988114;28;20438;-47
2024/03/17 04:54:43;;;;;;;2.43;1.87;;;11.40;99.90;;;;;;4976138;28;20439;-47
2024/03/17 04:57:11;;;;;;;1.90;1.50;;;11.40;99.90;;;;;;4972361;28;20478;-47
2024/03/17 04:59:39;;;;;;;2.40;1.90;;;11.40;99.90;;;;;;4976071;28;20486;-48
2024/03/17 05:02:07;;;;;;;2.20;1.87;;;11.40;99.90;;;;;;4978774;28;21089;-47
2024/03/17 05:04:35;;;;;;;2.30;1.90;;;11.40;99.90;;;;;;4970702;28;20443;-48
2024/03/17 05:07:02;;;;;;;2.17;1.77;;;11.40;99.90;;;;;;4970020;28;20537;-46
2024/03/17 05:09:29;;;;;;;1.50;1.20;;;11.40;99.90;;;;;;4978115;28;20466;-46
2024/03/17 05:11:56;;;;;;;1.73;1.37;;;11.40;99.90;;;;;;4980464;28;20447;-47
2024/03/17 05:14:25;;;;;;;1.70;1.40;;;11.40;99.90;;;;;;4970317;28;20492;-48
2024/03/17 05:16:53;;;;;;;2.57;1.90;;;11.30;99.90;;;;;;4977053;28;21021;-47
2024/03/17 05:19:20;;;;;;;2.00;1.67;;;11.30;99.90;;;;;;4983828;28;20987;-49
2024/03/17 05:21:48;;;;;;;2.30;1.67;;;11.30;99.90;;;;;;4980576;28;20536;-47
2024/03/17 05:24:15;;;;;;;1.80;1.60;;;11.30;99.90;;;;;;4985197;28;20524;-47
2024/03/17 05:26:43;;;;;;;1.90;1.30;;;11.30;99.90;;;;;;4973883;28;20537;-49
2024/03/17 05:29:10;;;;;;;2.70;1.87;;;11.30;99.90;;;;;;4969164;28;20523;-46
2024/03/17 05:31:38;;;;;;;1.80;1.47;;;11.30;99.90;;;;;;4967575;28;20529;-48
2024/03/17 05:34:08;;;;;;;2.23;1.70;;;11.30;99.90;;;;;;4969376;28;20431;-47
2024/03/17 05:36:35;;;;;;;1.80;1.50;;;11.30;99.90;;;;;;4973383;28;20472;-47
2024/03/17 05:39:02;;;;;;;3.53;1.63;;;11.30;99.90;;;;;;4977816;28;20450;-47
2024/03/17 05:41:29;;;;;;;2.50;1.70;;;11.30;99.90;;;;;;4971930;28;20471;-46
2024/03/17 05:43:58;;;;;;;2.43;2.13;;;11.30;99.90;;;;;;4978258;28;20794;-46
2024/03/17 05:46:26;;;;;;;1.80;1.70;;;11.30;99.90;;;;;;4977374;28;20453;-49
2024/03/17 05:48:53;;;;;;;1.90;1.70;;;11.30;99.90;;;;;;4973211;28;20465;-47
2024/03/17 05:51:25;;;;;;;2.77;1.60;;;11.30;99.90;;;;;;4982001;28;20518;-47
2024/03/17 05:53:52;;;;;;;2.63;1.77;;;11.30;99.90;;;;;;4970784;28;20436;-46
2024/03/17 05:56:22;;;;;;;2.43;1.70;;;11.30;99.90;;;;;;4972756;28;21023;-47
2024/03/17 05:58:50;;;;;;;2.00;1.43;;;11.30;99.90;;;;;;4978258;28;21061;-46
2024/03/17 06:01:17;;;;;;;3.40;1.80;;;11.30;99.90;;;;;;4973206;28;21090;-48
2024/03/17 06:03:44;;;;;;;1.60;1.30;;;11.30;99.90;;;;;;4973538;28;20935;-46
2024/03/17 06:06:11;;;;;;;2.30;1.97;;;11.30;99.90;;;;;;4989519;28;21049;-48
2024/03/17 06:08:40;;;;;;;2.00;1.63;;;11.20;99.90;;;;;;4973804;28;20458;-46
2024/03/17 06:11:08;;;;;;;2.43;1.70;;;11.20;99.90;;;;;;4972028;28;20967;-48
2024/03/17 06:13:36;;;;;;;1.80;1.30;;;;;;;;;;4987617;28;20484;-47
2024/03/17 06:16:05;;;;;;;1.60;1.30;;;11.30;99.90;;;;;;4983681;28;20442;-46
2024/03/17 06:18:32;;;;;;;1.63;1.33;;;11.20;99.90;;;;;;4988183;28;20540;-47
2024/03/17 06:20:59;;;;;;;2.40;1.57;;;11.20;99.90;;;;;;4981283;28;20588;-48
2024/03/17 06:23:28;;;;;;;1.70;1.60;;;11.20;99.90;;;;;;4990500;28;20434;-46
2024/03/17 06:25:56;;;;;;;2.30;1.50;;;11.20;99.90;;;;;;4979490;28;20872;-46
2024/03/17 06:28:26;;;;;;;2.63;1.40;;;11.20;99.90;;;;;;4987937;28;20977;-49
2024/03/17 06:30:59;;;;;;;3.27;1.80;;;11.20;99.90;;;;;;4975684;28;20470;-47
2024/03/17 06:33:27;;;;;;;2.00;1.50;;;11.20;99.90;;;;;;4979890;28;20445;-48
2024/03/17 06:35:55;;;;;;;1.70;1.10;;;11.20;99.90;;;;;;4983975;28;20976;-47
2024/03/17 06:38:22;;;;;;;2.40;1.63;;;11.20;99.90;;;;;;4972681;28;20479;-47
2024/03/17 06:40:50;;;;;;;1.70;1.43;;;11.20;99.90;;;;;;5002256;28;20434;-47
2024/03/17 06:43:19;;;;;;;2.10;1.73;;;11.20;99.90;;;;;;4994275;28;20883;-47
2024/03/17 06:45:55;;;;;;;1.73;1.47;;;11.20;99.90;;;;;;4978824;28;20441;-47
2024/03/17 06:48:22;;;;;;;2.20;1.70;;;11.20;99.90;;;;;;4975278;28;20449;-47
2024/03/17 06:50:51;;;;;;;1.50;1.10;;;11.10;99.90;;;;;;4974008;28;20437;-46
2024/03/17 06:53:18;;;;;;;1.93;1.20;;;11.20;99.90;;;;;;4974486;28;20542;-46
2024/03/17 06:55:53;;;;;;;1.70;1.13;;;11.10;99.90;;;;;;4976947;28;20936;-46
2024/03/17 06:58:22;;;;;;;2.03;1.40;;;11.20;99.90;;;;;;4972486;28;20959;-47
2024/03/17 07:00:56;;;;;;;2.63;1.60;;;11.10;99.90;;;;;;4971311;28;20482;-47
2024/03/17 07:03:27;;;;;;;2.30;1.60;;;11.10;99.90;;;;;;4978450;28;21902;-46
2024/03/17 07:05:55;;;;;;;3.43;1.60;;;11.10;99.90;;;;;;4979463;28;20429;-48
2024/03/17 07:08:23;;;;;;;1.60;1.17;;;11.20;99.90;;;;;;4971954;28;20543;-49
2024/03/17 07:10:58;;;;;;;2.80;1.60;;;11.20;99.90;;;;;;4973148;28;20541;-47
2024/03/17 07:13:28;;;;;;;2.33;1.50;;;11.20;99.90;;;;;;4973348;28;20471;-46
2024/03/17 07:15:55;;;;;;;2.00;1.60;;;11.20;99.90;;;;;;4975930;28;20485;-46
2024/03/17 07:18:23;;;;;;;3.67;1.70;;;11.20;99.90;;;;;;4978400;28;20476;-47
2024/03/17 07:20:50;;;;;;;1.67;1.57;;;11.10;99.90;;;;;;4975500;28;20432;-46
2024/03/17 07:23:17;;;;;;;2.00;1.60;;;11.10;99.90;;;;;;4982214;28;20474;-48
2024/03/17 07:25:53;;;;;;;2.57;1.60;;;11.10;99.90;;;;;;4983172;28;20443;-47
2024/03/17 07:28:20;;;;;;;2.03;1.33;;;11.10;99.90;;;;;;5001142;28;21778;-47
2024/03/17 07:30:50;;;;;;;1.80;1.30;;;11.10;99.90;;;;;;4974873;28;21014;-47
2024/03/17 07:33:17;;;;;;;2.17;1.73;;;11.10;99.90;;;;;;4978926;28;20439;-46
2024/03/17 07:35:49;;;;;;;2.40;1.73;;;11.10;99.90;;;;;;4983035;28;20446;-46
2024/03/17 07:38:16;;;;;;;2.53;1.53;;;11.10;99.90;;;;;;4971320;28;20521;-46
2024/03/17 07:40:44;;;;;;;1.80;1.30;;;11.10;99.90;;;;;;4977012;28;20532;-47
2024/03/17 07:43:12;;;;;;;2.07;1.10;;;11.10;99.90;;;;;;4955976;28;20438;-46
2024/03/17 07:45:39;;;;;;;2.30;1.63;;;11.10;99.90;;;;;;4971345;28;20945;-47
2024/03/17 07:48:08;;;;;;;2.07;1.63;;;11.10;99.90;;;;;;4972821;28;20838;-48
2024/03/17 07:50:35;;;;;;;1.60;1.30;;;11.10;99.90;;;;;;4972896;28;20514;-46
2024/03/17 07:53:03;;;;;;;2.10;1.60;;;11.10;99.90;;;;;;4972576;28;20500;-46
2024/03/17 07:55:31;;;;;;;1.90;1.50;;;11.10;99.90;;;;;;4985638;28;20519;-46
2024/03/17 07:57:58;;;;;;;2.00;1.50;;;11.10;99.90;;;;;;4988331;28;20473;-47
2024/03/17 08:00:26;;;;;;;1.97;1.47;;;11.10;99.90;;;;;;4985438;28;20505;-47
2024/03/17 08:02:53;;;;;;;1.90;1.60;;;11.10;99.90;;;;;;4987474;28;20432;-46
2024/03/17 08:05:23;;;;;;;1.90;1.60;;;11.10;99.90;;;;;;4973229;28;20445;-46
2024/03/17 08:07:50;;;;;;;1.60;1.13;;;11.10;99.90;;;;;;4984295;28;20495;-46
2024/03/17 08:10:18;;;;;;;1.67;1.43;;;11.10;99.90;;;;;;4987404;28;20568;-48
2024/03/17 08:12:46;;;;;;;2.87;1.27;;;11.10;99.90;;;;;;4977362;28;20536;-46
2024/03/17 08:15:13;;;;;;;1.63;1.07;;;11.10;99.90;;;;;;4983527;28;20557;-47
2024/03/17 08:17:41;;;;;;;1.70;1.20;;;11.10;99.90;;;;;;4980695;28;20528;-46
2024/03/17 08:20:09;;;;;;;2.00;1.70;;;11.10;99.90;;;;;;4975790;28;20568;-47
2024/03/17 08:22:37;;;;;;;2.00;1.60;;;11.10;99.90;;;;;;4985805;28;20877;-47
2024/03/17 08:25:05;;;;;;;1.70;1.50;;;11.10;99.90;;;;;;5004154;28;20471;-47
2024/03/17 08:27:32;;;;;;;2.60;1.20;;;11.10;99.90;;;;;;4977608;28;20448;-47
2024/03/17 08:30:00;;;;;;;2.40;1.53;;;11.10;99.90;;;;;;4987043;28;20441;-46
2024/03/17 08:32:27;;;;;;;1.87;1.37;;;11.10;99.90;;;;;;4982684;28;20951;-47
2024/03/17 08:34:54;;;;;;;2.77;1.60;;;11.10;99.90;;;;;;4981795;28;20445;-47
2024/03/17 08:37:25;;;;;;;1.73;1.33;;;11.10;99.90;;;;;;4979532;28;20557;-47
2024/03/17 08:39:54;;;;;;;1.70;1.40;;;11.10;99.90;;;;;;4986055;28;20465;-47
2024/03/17 08:42:21;;;;;;;1.50;1.30;;;11.10;99.90;;;;;;4981901;28;20557;-47
2024/03/17 08:44:48;;;;;;;2.40;1.40;;;11.10;99.90;;;;;;4980731;28;20484;-47
2024/03/17 08:47:15;;;;;;;2.30;1.00;;;11.10;99.90;;;;;;4978901;28;21017;-47
2024/03/17 08:49:43;;;;;;;1.90;1.50;;;11.10;99.90;;;;;;4983493;28;20577;-47
2024/03/17 08:52:10;;;;;;;2.47;1.47;;;11.10;99.90;;;;;;4986270;28;20540;-45
2024/03/17 08:54:37;;;;;;;1.90;1.50;;;11.20;99.90;;;;;;4969912;28;20513;-46
2024/03/17 08:57:06;;;;;;;1.80;1.27;;;11.20;99.90;;;;;;4970348;28;20219;-47
2024/03/17 08:59:33;;;;;;;2.40;1.90;;;11.30;99.90;;;;;;4985238;28;21008;-47
2024/03/17 09:02:00;;;;;;;2.67;1.50;;;11.20;99.90;;;;;;4970394;28;20427;-46
2024/03/17 09:04:27;;;;;;;3.77;2.77;;;11.20;99.90;;;;;;4974071;28;20448;-47
2024/03/17 09:06:56;;;;;;;4.73;4.20;;;11.20;99.90;;;;;;4987303;28;20591;-47
2024/03/17 09:09:23;;;;;;;4.37;3.70;;;11.20;99.90;;;;;;4969412;28;20508;-47
2024/03/17 09:11:51;;;;;;;4.80;3.67;;;11.20;99.90;;;;;;4968674;28;20936;-47
2024/03/17 09:14:21;;;;;;;4.57;3.20;;;11.20;99.90;;;;;;4977465;28;20648;-47
2024/03/17 09:16:48;;;;;;;4.70;3.03;;;11.20;99.90;;;;;;4969886;28;20500;-47
2024/03/17 09:19:16;;;;;;;4.83;3.10;;;11.20;99.90;;;;;;4983465;28;20478;-46
2024/03/17 09:21:43;;;;;;;5.30;3.60;;;11.20;99.90;;;;;;4970147;28;20522;-47
2024/03/17 09:24:11;;;;;;;3.47;2.90;;;11.20;99.90;;;;;;4968254;28;20446;-47
2024/03/17 09:26:39;;;;;;;4.37;2.60;;;11.20;99.90;;;;;;4974810;28;20539;-47
2024/03/17 09:29:06;;;;;;;4.13;2.80;;;11.20;99.90;;;;;;4986583;28;20523;-48
2024/03/17 09:31:35;;;;;;;4.83;2.77;;;11.20;99.90;;;;;;4979759;28;20451;-47
2024/03/17 09:34:02;;;;;;;4.83;2.73;;;11.20;99.90;;;;;;4989932;28;20436;-47
2024/03/17 09:36:30;;;;;;;3.87;2.60;;;11.20;99.90;;;;;;4988229;28;20443;-47
2024/03/17 09:39:00;;;;;;;3.57;2.77;;;11.20;99.90;;;;;;4987251;28;20480;-47
2024/03/17 09:41:29;;;;;;;3.60;2.60;;;11.20;99.90;;;;;;4967849;28;20533;-47
2024/03/17 09:43:57;;;;;;;3.50;2.40;;;11.10;99.90;;;;;;4987090;28;20440;-46
2024/03/17 09:46:25;;;;;;;3.00;2.37;;;11.10;99.90;;;;;;4986855;28;20522;-47
2024/03/17 09:48:57;;;;;;;2.90;2.47;;;11.10;99.90;;;;;;4982335;28;21050;-47
2024/03/17 09:51:26;;;;;;;4.07;2.57;;;11.20;99.90;;;;;;4984286;28;20430;-47
2024/03/17 09:53:53;;;;;;;2.50;1.90;;;11.10;99.90;;;;;;4987722;28;20511;-47
2024/03/17 09:56:21;;;;;;;2.30;1.83;;;11.10;99.90;;;;;;4986824;28;20791;-47
2024/03/17 09:58:50;;;;;;;2.50;2.20;;;11.10;99.90;;;;;;4990285;28;21069;-47
2024/03/17 10:01:17;;;;;;;2.50;2.17;;;11.10;99.90;;;;;;4966475;28;20818;-47
2024/03/17 10:03:46;;;;;;;2.50;1.93;;;11.10;99.90;;;;;;4989106;28;20462;-47
2024/03/17 10:06:16;;;;;;;2.80;1.87;;;11.10;99.90;;;;;;4982781;28;20446;-46
2024/03/17 10:08:44;;;;;;;3.17;2.40;;;11.10;99.90;;;;;;4986022;28;20606;-50
2024/03/17 10:11:12;;;;;;;3.27;2.20;;;11.10;99.90;;;;;;4978835;28;20458;-47
2024/03/17 10:13:40;;;;;;;3.67;2.70;;;11.10;99.90;;;;;;4988899;28;20516;-47
2024/03/17 10:16:07;;;;;;;3.03;2.73;;;11.10;99.90;;;;;;4987006;28;20434;-46
2024/03/17 10:18:34;;;;;;;2.40;1.97;;;11.10;99.90;;;;;;4976505;28;20566;-48
2024/03/17 10:21:01;;;;;;;2.43;1.73;;;11.10;99.90;;;;;;4984163;28;20474;-50
2024/03/17 10:23:30;;;;;;;3.40;2.03;;;11.10;99.90;;;;;;4983552;28;20424;-47
2024/03/17 10:25:57;;;;;;;2.90;2.07;;;11.10;99.90;;;;;;5004483;28;20455;-46
2024/03/17 10:28:24;;;;;;;2.47;1.93;;;11.10;99.90;;;;;;4980278;28;20558;-47
2024/03/17 10:30:59;;;;;;;2.60;2.07;;;11.10;99.90;;;;;;4974958;28;20527;-48
2024/03/17 10:33:27;;;;;;;2.67;1.50;;;11.10;99.90;;;;;;4990071;28;20508;-47
2024/03/17 10:36:00;;;;;;;2.10;1.60;;;11.10;99.90;;;;;;4988364;28;20537;-47
2024/03/17 10:38:28;;;;;;;2.23;1.50;;;11.10;99.90;;;;;;4977609;28;20611;-46
2024/03/17 10:40:57;;;;;;;3.47;2.23;;;11.10;99.90;;;;;;4984811;28;20447;-47
2024/03/17 10:43:25;;;;;;;2.60;2.30;;;11.10;99.90;;;;;;4989189;28;20520;-48
2024/03/17 10:45:55;;;;;;;2.87;2.03;;;11.10;99.90;;;;;;4988424;28;20578;-47
2024/03/17 10:48:25;;;;;;;1.87;1.50;;;11.10;99.90;;;;;;4980812;28;20521;-47
2024/03/17 10:50:56;;;;;;;2.60;1.60;;;11.10;99.90;;;;;;4986745;28;20446;-48
2024/03/17 10:53:26;;;;;;;2.57;1.70;;;11.10;99.90;;;;;;4974272;28;20685;-46
2024/03/17 10:56:06;;;;;;;4.33;2.53;;;11.10;99.90;;;;;;4971603;28;20481;-46
2024/03/17 10:58:36;;;;;;;2.50;2.20;;;11.10;99.90;;;;;;4972393;28;20466;-47
2024/03/17 11:01:04;;;;;;;2.30;1.70;;;11.10;99.90;;;;;;4972743;28;20529;-47
2024/03/17 11:03:35;;;;;;;2.53;1.87;;;11.10;99.90;;;;;;4973596;28;20466;-47
2024/03/17 11:06:05;;;;;;;1.87;1.40;;;11.10;99.90;;;;;;4982329;28;20493;-46
2024/03/17 11:08:34;;;;;;;1.93;1.50;;;11.10;99.90;;;;;;4983871;28;20449;-47
2024/03/17 11:11:03;;;;;;;2.30;1.57;;;11.10;99.90;;;;;;4984470;28;20475;-47
2024/03/17 11:13:33;;;;;;;2.33;1.47;;;11.10;99.90;;;;;;4988994;28;20425;-47
2024/03/17 11:16:04;;;;;;;3.27;1.90;;;11.10;99.90;;;;;;4987998;28;20451;-47
2024/03/17 11:18:37;;;;;;;2.30;1.70;;;11.10;99.90;;;;;;4981674;28;20548;-47
2024/03/17 11:21:11;;;;;;;2.20;1.67;;;11.10;99.90;;;;;;4985635;28;20536;-47
2024/03/17 11:23:39;;;;;;;2.67;1.97;;;11.10;99.90;;;;;;4985489;28;20437;-46
2024/03/17 11:26:08;;;;;;;2.27;1.60;;;11.10;99.90;;;;;;4980466;28;20538;-47
2024/03/17 11:28:55;;;;;;;2.50;1.93;;;11.10;99.90;;;;;;4981608;28;20493;-47
2024/03/17 11:31:37;;;;;;;1.73;1.23;;;11.10;99.90;;;;;;4986156;28;20526;-46
2024/03/17 11:34:07;;;;;;;2.23;1.90;;;11.10;99.90;;;;;;4973039;28;20917;-47
2024/03/17 11:36:36;;;;;;;2.93;1.40;;;11.10;99.90;;;;;;4984626;28;20432;-47
2024/03/17 11:39:08;;;;;;;2.03;1.50;;;11.10;99.90;;;;;;4979013;28;20739;-47
2024/03/17 11:41:40;;;;;;;2.30;1.47;;;11.10;99.90;;;;;;4981470;28;20443;-46
2024/03/17 11:44:26;;;;;;;2.00;1.70;;;11.10;99.90;;;;;;4978324;28;20541;-47
2024/03/17 11:46:54;;;;;;;2.03;1.57;;;11.10;99.90;;;;;;4967702;28;20440;-47
2024/03/17 11:49:24;;;;;;;2.40;1.40;;;11.10;99.90;;;;;;4977424;28;20561;-46
2024/03/17 11:51:51;;;;;;;1.97;1.77;;;11.10;99.90;;;;;;5002591;28;20429;-47
2024/03/17 11:54:19;;;;;;;2.83;1.83;;;11.10;99.90;;;;;;4977963;28;20437;-47
2024/03/17 11:56:49;;;;;;;2.27;1.67;;;11.10;99.90;;;;;;5005087;28;20954;-47
2024/03/17 11:59:18;;;;;;;1.80;1.37;;;11.10;99.90;;;;;;4978659;28;20471;-46
2024/03/17 12:01:45;;;;;;;1.60;1.23;;;11.10;99.90;;;;;;4981553;28;20882;-47
2024/03/17 12:04:14;;;;;;;1.83;1.53;;;11.10;99.90;;;;;;4977686;28;21010;-46
2024/03/17 12:06:45;;;;;;;1.70;1.37;;;11.10;99.90;;;;;;4987123;28;20528;-47
2024/03/17 12:09:20;;;;;;;2.03;1.60;;;11.10;99.90;;;;;;4973077;28;20465;-46
2024/03/17 12:11:49;;;;;;;2.20;1.60;;;11.10;99.90;;;;;;4985800;28;20458;-47
2024/03/17 12:14:20;;;;;;;1.80;1.57;;;11.10;99.90;;;;;;4980216;28;20488;-46
2024/03/17 12:16:48;;;;;;;2.60;1.50;;;11.10;99.90;;;;;;4986010;28;20441;-46
2024/03/17 12:19:17;;;;;;;2.37;1.30;;;11.10;99.90;;;;;;4972367;28;20625;-47
2024/03/17 12:21:49;;;;;;;2.47;1.60;;;11.10;99.90;;;;;;4980251;28;21002;-47
2024/03/17 12:24:19;;;;;;;2.60;2.10;;;11.10;99.90;;;;;;4983593;28;20431;-47
2024/03/17 12:26:46;;;;;;;2.20;1.20;;;11.10;99.90;;;;;;4961284;28;20477;-46
2024/03/17 12:29:29;;;;;;;2.30;1.83;;;11.10;99.90;;;;;;4978232;28;20572;-47
2024/03/17 12:31:58;;;;;;;3.40;1.37;;;11.10;99.90;;;;;;4985009;28;20424;-47
2024/03/17 12:34:27;;;;;;;1.73;1.33;;;11.10;99.90;;;;;;4985964;28;20534;-46
2024/03/17 12:36:54;;;;;;;2.00;1.70;;;11.10;99.90;;;;;;4980082;28;20432;-47
2024/03/17 12:39:23;;;;;;;3.50;1.60;;;11.10;99.90;;;;;;4968869;28;21002;-47
2024/03/17 12:42:08;;;;;;;1.80;1.30;;;11.10;99.90;;;;;;4983780;28;20496;-47
2024/03/17 12:44:41;;;;;;;2.00;1.27;;;11.20;99.90;;;;;;4980251;28;20418;-47
2024/03/17 12:47:15;;;;;;;2.50;1.70;;;11.20;99.90;;;;;;4981416;28;20541;-47
2024/03/17 12:49:45;;;;;;;2.30;1.47;;;11.20;99.90;;;;;;4976333;28;20481;-47
2024/03/17 12:52:19;;;;;;;2.50;1.70;;;11.20;99.90;;;;;;4970175;28;20468;-46
2024/03/17 12:54:52;;;;;;;2.10;1.80;;;11.20;99.90;;;;;;4975120;28;20482;-47
2024/03/17 13:00:32;;;;;;;2.17;1.70;;;11.20;99.90;;;;;;4971760;28;20489;-47